Time;durP1;ratioP1;P1;durP2;ratioP2;P2;SDS_P1;SDS_P2;PMS_P1;PMS_P2;Temp;Humidity;BMP_temperature;BMP_pressure;BME280_temperature;BME280_humidity;BME280_pressure;Samples;Min_cycle;Max_cycle;Signal;HPM_P1;HPM_P2
2023/04/20 00:00:44;;;;;;;24.20;22.67;;;;;;;;;;5021316;28;20511;-79
2023/04/20 00:03:11;;;;;;;23.70;22.30;;;;;;;;;;5019891;28;20885;-80
2023/04/20 00:05:38;;;;;;;24.10;22.60;;;;;;;;;;5020026;28;20459;-80
2023/04/20 00:08:05;;;;;;;23.90;22.50;;;;;;;;;;5019697;28;20457;-80
2023/04/20 00:10:33;;;;;;;23.53;21.93;;;;;;;;;;5020431;28;20471;-80
2023/04/20 00:13:00;;;;;;;24.03;22.33;;;;;;;;;;5019801;28;20495;-81
2023/04/20 00:15:28;;;;;;;23.37;22.03;;;;;;;;;;5019612;28;20448;-79
2023/04/20 00:17:56;;;;;;;23.80;22.30;;;;;;;;;;5019587;28;20460;-80
2023/04/20 00:20:23;;;;;;;23.57;22.17;;;;;;;;;;5019759;28;20957;-80
2023/04/20 00:22:50;;;;;;;24.27;22.13;;;;;;;;;;5019839;28;20555;-80
2023/04/20 00:25:17;;;;;;;23.93;22.43;;;;;;;;;;5019658;28;20496;-80
2023/04/20 00:27:46;;;;;;;23.70;22.20;;;;;;;;;;5019566;28;20484;-80
2023/04/20 00:30:14;;;;;;;23.40;22.10;;;;;;;;;;5019848;28;20472;-80
2023/04/20 00:32:41;;;;;;;24.40;22.90;;;;;;;;;;5023045;28;20429;-80
2023/04/20 00:35:08;;;;;;;24.37;22.57;;;;;;;;;;5022610;28;20493;-80
2023/04/20 00:37:35;;;;;;;23.33;21.93;;;;;;;;;;5023096;28;20433;-81
2023/04/20 00:40:03;;;;;;;23.77;22.27;;;;;;;;;;5022557;28;20470;-81
2023/04/20 00:42:30;;;;;;;23.13;21.67;;;;;;;;;;5022862;28;20416;-81
2023/04/20 00:44:59;;;;;;;23.70;22.30;;;;;;;;;;5022134;28;20468;-81
2023/04/20 00:47:26;;;;;;;23.80;22.30;;;;;;;;;;5022904;28;20577;-81
2023/04/20 00:49:53;;;;;;;25.70;23.90;;;;;;;;;;5021973;28;20446;-80
2023/04/20 00:52:21;;;;;;;24.50;22.90;;;;;;;;;;5022000;28;20907;-80
2023/04/20 00:54:49;;;;;;;24.83;23.33;;;;;;;;;;5022880;28;20465;-80
2023/04/20 00:57:21;;;;;;;25.50;23.60;;;;;;;;;;5021761;28;20450;-80
2023/04/20 00:59:48;;;;;;;25.00;23.40;;;;;;;;;;5022020;28;20545;-80
2023/04/20 01:02:18;;;;;;;23.67;22.27;;;;;;;;;;5022046;28;20463;-80
2023/04/20 01:04:45;;;;;;;24.53;23.00;;;;;;;;;;5021568;28;20427;-80
2023/04/20 01:07:12;;;;;;;23.80;22.20;;;;;;;;;;5020987;28;20443;-79
2023/04/20 01:09:39;;;;;;;25.13;23.63;;;;;;;;;;5021740;28;20880;-80
2023/04/20 01:12:06;;;;;;;24.43;22.73;;;;;;;;;;5021406;28;20415;-80
2023/04/20 01:14:33;;;;;;;24.57;23.00;;;;;;;;;;5021022;28;20435;-80
2023/04/20 01:17:03;;;;;;;24.67;23.17;;;;;;;;;;5020825;28;20501;-79
2023/04/20 01:19:32;;;;;;;24.77;23.13;;;;;;;;;;5020632;28;20447;-81
2023/04/20 01:21:59;;;;;;;25.13;23.53;;;;;;;;;;5020318;28;20492;-80
2023/04/20 01:24:27;;;;;;;26.50;23.93;;;;;;;;;;5020474;28;20448;-80
2023/04/20 01:26:55;;;;;;;25.57;23.67;;;;;;;;;;5020466;28;20778;-80
2023/04/20 01:29:22;;;;;;;24.40;22.80;;;;;;;;;;5020271;28;20484;-80
2023/04/20 01:31:49;;;;;;;25.23;23.40;;;;;;;;;;5020623;28;20469;-80
2023/04/20 01:34:16;;;;;;;25.93;24.17;;;;;;;;;;5020883;28;20907;-81
2023/04/20 01:36:43;;;;;;;24.87;23.37;;;;;;;;;;5020376;28;20438;-80
2023/04/20 01:39:11;;;;;;;25.97;23.90;;;;;;;;;;5019726;28;20466;-80
2023/04/20 01:41:39;;;;;;;25.00;23.30;;;;;;;;;;5020619;28;20487;-80
2023/04/20 01:44:06;;;;;;;24.40;22.70;;;;;;;;;;5019833;28;20480;-81
2023/04/20 01:46:33;;;;;;;25.80;23.80;;;;;;;;;;5018548;28;20558;-80
2023/04/20 01:49:00;;;;;;;24.67;23.17;;;;;;;;;;5017956;28;20856;-80
2023/04/20 01:51:28;;;;;;;25.98;24.25;;;;;;;;;;5018577;28;20572;-80
2023/04/20 01:53:55;;;;;;;23.43;21.83;;;;;;;;;;5016727;28;20206;-80
2023/04/20 01:56:22;;;;;;;25.43;23.47;;;;;;;;;;5016997;28;20453;-80
2023/04/20 01:58:50;;;;;;;24.97;23.30;;;;;;;;;;5017458;28;20515;-81
2023/04/20 02:01:17;;;;;;;22.90;21.52;;;;;;;;;;5017796;28;20496;-81
2023/04/20 02:03:44;;;;;;;24.00;22.40;;;;;;;;;;5019451;28;20267;-80
2023/04/20 02:06:12;;;;;;;23.60;22.10;;;;;;;;;;5018389;28;20779;-81
2023/04/20 02:08:39;;;;;;;24.23;22.40;;;;;;;;;;5019120;28;20458;-81
2023/04/20 02:11:06;;;;;;;24.00;22.50;;;;;;;;;;5018143;28;20422;-80
2023/04/20 02:13:33;;;;;;;23.40;21.53;;;;;;;;;;5019554;28;20784;-80
2023/04/20 02:16:01;;;;;;;22.40;21.20;;;;;;;;;;5018665;28;20456;-80
2023/04/20 02:18:28;;;;;;;22.27;20.83;;;;;;;;;;5019005;28;20233;-80
2023/04/20 02:20:56;;;;;;;22.88;21.52;;;;;;;;;;5018943;28;20466;-81
2023/04/20 02:23:23;;;;;;;22.93;21.63;;;;;;;;;;5018669;28;20209;-79
2023/04/20 02:25:50;;;;;;;23.20;21.80;;;;;;;;;;5018656;28;20503;-80
2023/04/20 02:28:17;;;;;;;23.47;22.07;;;;;;;;;;5018920;28;20540;-81
2023/04/20 02:30:44;;;;;;;22.33;21.03;;;;;;;;;;5019750;28;20489;-80
2023/04/20 02:33:12;;;;;;;22.87;21.57;;;;;;;;;;5020174;28;20458;-81
2023/04/20 02:35:39;;;;;;;21.93;20.77;;;;;;;;;;5019844;28;20452;-80
2023/04/20 02:38:06;;;;;;;23.67;22.20;;;;;;;;;;5020138;28;20427;-82
2023/04/20 02:40:33;;;;;;;24.63;22.73;;;;;;;;;;5019779;28;20461;-80
2023/04/20 02:43:00;;;;;;;23.20;21.70;;;;;;;;;;5018673;28;20473;-80
2023/04/20 02:45:27;;;;;;;23.73;22.33;;;;;;;;;;5019649;28;20456;-81
2023/04/20 02:47:54;;;;;;;23.70;22.30;;;;;;;;;;5019320;28;20974;-80
2023/04/20 02:50:23;;;;;;;23.30;21.80;;;;;;;;;;5020027;28;20951;-81
2023/04/20 02:52:50;;;;;;;22.00;20.73;;;;;;;;;;5019032;28;20441;-81
2023/04/20 02:55:17;;;;;;;21.90;20.67;;;;;;;;;;5020042;28;20466;-80
2023/04/20 02:57:44;;;;;;;24.58;22.85;;;;;;;;;;5019818;28;20498;-80
2023/04/20 03:00:12;;;;;;;23.70;22.38;;;;;;;;;;5020691;28;20229;-80
2023/04/20 03:02:39;;;;;;;23.30;21.80;;;;;;;;;;5021051;28;20280;-81
2023/04/20 03:05:07;;;;;;;23.40;21.90;;;;;;;;;;5019701;28;20472;-80
2023/04/20 03:07:35;;;;;;;23.40;21.93;;;;;;;;;;5020137;28;20435;-80
2023/04/20 03:10:03;;;;;;;23.50;22.08;;;;;;;;;;5021321;28;20477;-81
2023/04/20 03:12:30;;;;;;;24.37;22.67;;;;;;;;;;5020482;28;20211;-80
2023/04/20 03:14:57;;;;;;;23.00;21.50;;;;;;;;;;5020313;28;20452;-81
2023/04/20 03:17:24;;;;;;;22.77;21.43;;;;;;;;;;5018477;28;20499;-80
2023/04/20 03:19:51;;;;;;;24.13;22.63;;;;;;;;;;5019720;28;20443;-81
2023/04/20 03:22:18;;;;;;;24.80;23.20;;;;;;;;;;5020783;28;20480;-80
2023/04/20 03:24:47;;;;;;;24.70;23.20;;;;;;;;;;5020985;28;20525;-80
2023/04/20 03:27:14;;;;;;;24.13;22.55;;;;;;;;;;5018053;28;20217;-80
2023/04/20 03:29:41;;;;;;;23.20;21.73;;;;;;;;;;5021803;28;20659;-81
2023/04/20 03:32:08;;;;;;;23.03;21.50;;;;;;;;;;5022681;28;20603;-80
2023/04/20 03:34:35;;;;;;;24.70;23.07;;;;;;;;;;5023038;28;20436;-80
2023/04/20 03:37:02;;;;;;;24.20;22.60;;;;;;;;;;5021610;28;20874;-80
2023/04/20 03:39:29;;;;;;;22.00;20.70;;;;;;;;;;5022342;28;20550;-81
2023/04/20 03:41:58;;;;;;;22.83;21.37;;;;;;;;;;5021685;28;20283;-80
2023/04/20 03:44:25;;;;;;;25.13;23.52;;;;;;;;;;5022815;28;20487;-81
2023/04/20 03:46:52;;;;;;;25.52;23.83;;;;;;;;;;5021972;28;20210;-81
2023/04/20 03:49:21;;;;;;;26.52;24.63;;;;;;;;;;5022015;28;20225;-82
2023/04/20 03:51:48;;;;;;;25.80;24.30;;;;;;;;;;5022062;28;20205;-80
2023/04/20 03:54:15;;;;;;;23.13;21.67;;;;;;;;;;5021167;28;20461;-80
2023/04/20 03:56:43;;;;;;;24.83;23.23;;;;;;;;;;5021361;28;20206;-81
2023/04/20 03:59:11;;;;;;;24.63;23.10;;;;;;;;;;5028575;28;20477;-80
2023/04/20 04:01:38;;;;;;;25.77;24.03;;;;;;;;;;5034183;28;20233;-79
2023/04/20 04:04:05;;;;;;;24.60;23.20;;;;;;;;;;5033932;28;20540;-80
2023/04/20 04:06:32;;;;;;;25.37;23.53;;;;;;;;;;5026323;28;20224;-82
2023/04/20 04:08:59;;;;;;;26.10;24.30;;;;;;;;;;5025706;28;20468;-81
2023/04/20 04:11:28;;;;;;;25.83;24.13;;;;;;;;;;5025635;28;20202;-81
2023/04/20 04:13:55;;;;;;;26.60;24.53;;;;;;;;;;5026822;28;20434;-81
2023/04/20 04:16:24;;;;;;;25.87;24.17;;;;;;;;;;5025240;28;20472;-80
2023/04/20 04:18:51;;;;;;;27.15;24.55;;;;;;;;;;5025594;28;20469;-81
2023/04/20 04:21:18;;;;;;;25.65;23.98;;;;;;;;;;5025083;28;20225;-81
2023/04/20 04:23:45;;;;;;;26.43;24.07;;;;;;;;;;5025400;28;20213;-80
2023/04/20 04:26:12;;;;;;;26.63;24.73;;;;;;;;;;5024066;28;20450;-81
2023/04/20 04:28:40;;;;;;;24.70;23.10;;;;;;;;;;5024471;28;20523;-79
2023/04/20 04:31:07;;;;;;;25.47;23.87;;;;;;;;;;5021290;28;20509;-77
2023/04/20 04:33:35;;;;;;;24.50;22.83;;;;;;;;;;5016669;28;20455;-78
2023/04/20 04:36:02;;;;;;;26.58;24.65;;;;;;;;;;5016109;28;20946;-77
2023/04/20 04:38:30;;;;;;;25.97;24.17;;;;;;;;;;5016790;28;20221;-78
2023/04/20 04:40:57;;;;;;;25.13;23.52;;;;;;;;;;5016342;28;20437;-77
2023/04/20 04:43:24;;;;;;;25.40;23.70;;;;;;;;;;5016175;28;20763;-77
2023/04/20 04:45:52;;;;;;;25.92;24.02;;;;;;;;;;5015972;28;20559;-78
2023/04/20 04:48:19;;;;;;;27.17;25.17;;;;;;;;;;5016591;28;20241;-77
2023/04/20 04:50:47;;;;;;;25.77;24.00;;;;;;;;;;5016887;28;20243;-77
2023/04/20 04:53:14;;;;;;;26.47;24.50;;;;;;;;;;5016445;28;20202;-77
2023/04/20 04:55:41;;;;;;;25.20;23.70;;;;;;;;;;5015419;28;20452;-77
2023/04/20 04:58:08;;;;;;;25.00;23.40;;;;;;;;;;5016310;28;20506;-77
2023/04/20 05:00:35;;;;;;;25.83;24.02;;;;;;;;;;5015284;28;20824;-77
2023/04/20 05:03:02;;;;;;;25.77;24.03;;;;;;;;;;5016085;28;20598;-77
2023/04/20 05:05:29;;;;;;;25.60;23.70;;;;;;;;;;5015619;28;20519;-78
2023/04/20 05:07:58;;;;;;;25.33;23.70;;;;;;;;;;5015611;28;20662;-77
2023/04/20 05:10:25;;;;;;;25.83;23.93;;;;;;;;;;5015454;28;20492;-77
2023/04/20 05:12:52;;;;;;;25.37;23.63;;;;;;;;;;5015973;28;20424;-77
2023/04/20 05:15:19;;;;;;;24.27;22.60;;;;;;;;;;5016063;28;20539;-77
2023/04/20 05:17:48;;;;;;;24.10;22.30;;;;;;;;;;5015381;28;20431;-77
2023/04/20 05:20:15;;;;;;;24.90;23.20;;;;;;;;;;5015718;28;20237;-77
2023/04/20 05:22:42;;;;;;;25.57;23.93;;;;;;;;;;5015428;28;20471;-77
2023/04/20 05:25:11;;;;;;;24.33;22.80;;;;;;;;;;5015776;28;20435;-78
2023/04/20 05:27:38;;;;;;;26.67;24.60;;;;;;;;;;5014992;28;20454;-77
2023/04/20 05:30:06;;;;;;;25.97;24.10;;;;;;;;;;5015752;28;20542;-77
2023/04/20 05:32:33;;;;;;;24.20;22.67;;;;;;;;;;5015034;28;20449;-77
2023/04/20 05:35:00;;;;;;;25.70;23.85;;;;;;;;;;5015138;28;20475;-77
2023/04/20 05:37:27;;;;;;;24.77;23.10;;;;;;;;;;5015223;28;20549;-77
2023/04/20 05:39:54;;;;;;;23.70;22.20;;;;;;;;;;5015632;28;20225;-77
2023/04/20 05:42:22;;;;;;;23.38;21.77;;;;;;;;;;5015648;28;20466;-78
2023/04/20 05:44:49;;;;;;;26.08;24.17;;;;;;;;;;5015028;28;20256;-77
2023/04/20 05:47:16;;;;;;;26.43;24.53;;;;;;;;;;5015010;28;20624;-77
2023/04/20 05:49:44;;;;;;;27.40;25.27;;;;;;;;;;5015388;28;20451;-77
2023/04/20 05:52:12;;;;;;;25.45;23.85;;;;;;;;;;5015403;28;20462;-76
2023/04/20 05:54:39;;;;;;;26.27;24.38;;;;;;;;;;5014445;28;20213;-77
2023/04/20 05:57:06;;;;;;;25.63;23.83;;;;;;;;;;5014914;28;20209;-77
2023/04/20 05:59:34;;;;;;;26.47;24.50;;;;;;;;;;5015931;28;20233;-84
2023/04/20 06:02:01;;;;;;;25.33;23.65;;;;;;;;;;5014961;28;20459;-77
2023/04/20 06:04:29;;;;;;;26.30;24.30;;;;;;;;;;5014072;28;20748;-78
2023/04/20 06:06:56;;;;;;;24.88;23.20;;;;;;;;;;5015001;28;20198;-78
2023/04/20 06:09:23;;;;;;;26.45;24.60;;;;;;;;;;5014468;28;20267;-78
2023/04/20 06:11:50;;;;;;;25.43;23.53;;;;;;;;;;5015228;28;20197;-79
2023/04/20 06:14:17;;;;;;;27.53;25.33;;;;;;;;;;5014454;28;20933;-78
2023/04/20 06:16:45;;;;;;;24.93;23.17;;;;;;;;;;5013839;28;20447;-78
2023/04/20 06:19:12;;;;;;;25.70;23.70;;;;;;;;;;5014521;28;20480;-78
2023/04/20 06:21:40;;;;;;;28.20;26.00;;;;;;;;;;5014368;28;20431;-78
2023/04/20 06:24:07;;;;;;;24.60;22.83;;;;;;;;;;5014823;28;20455;-79
2023/04/20 06:26:34;;;;;;;25.07;23.33;;;;;;;;;;5013719;28;20499;-78
2023/04/20 06:29:01;;;;;;;26.10;24.37;;;;;;;;;;5014424;28;20458;-79
2023/04/20 06:31:28;;;;;;;23.67;22.07;;;;;;;;;;5014739;28;20491;-78
2023/04/20 06:33:56;;;;;;;26.67;24.73;;;;;;;;;;5014510;28;20489;-79
2023/04/20 06:36:23;;;;;;;24.80;23.05;;;;;;;;;;5014184;28;20427;-78
2023/04/20 06:38:50;;;;;;;25.20;23.40;;;;;;;;;;5014058;28;20225;-79
2023/04/20 06:41:17;;;;;;;26.88;24.73;;;;;;;;;;5015485;28;20206;-79
2023/04/20 06:43:45;;;;;;;26.15;24.05;;;;;;;;;;5015305;28;20779;-78
2023/04/20 06:46:12;;;;;;;25.10;23.50;;;;;;;;;;5014601;28;20252;-78
2023/04/20 06:48:39;;;;;;;25.83;24.00;;;;;;;;;;5014314;28;20964;-78
2023/04/20 06:51:07;;;;;;;27.00;25.13;;;;;;;;;;5015165;28;20215;-80
2023/04/20 06:53:34;;;;;;;24.45;22.70;;;;;;;;;;5015169;28;20427;-78
2023/04/20 06:56:02;;;;;;;24.98;23.17;;;;;;;;;;5013662;28;20780;-77
2023/04/20 06:58:29;;;;;;;25.95;24.15;;;;;;;;;;5013703;28;20225;-78
2023/04/20 07:00:55;;;;;;;25.57;23.83;;;;;;;;;;5014154;28;20557;-79
2023/04/20 07:03:23;;;;;;;26.60;24.60;;;;;;;;;;5014708;28;20876;-79
2023/04/20 07:05:50;;;;;;;25.47;23.70;;;;;;;;;;5014462;28;20457;-79
2023/04/20 07:08:19;;;;;;;25.08;23.27;;;;;;;;;;5015080;28;20535;-79
2023/04/20 07:10:46;;;;;;;24.27;22.37;;;;;;;;;;5014669;28;20206;-78
2023/04/20 07:13:12;;;;;;;26.10;24.00;;;;;;;;;;5014915;28;20420;-78
2023/04/20 07:15:39;;;;;;;25.60;23.63;;;;;;;;;;5014124;28;20456;-78
2023/04/20 07:18:06;;;;;;;26.03;24.07;;;;;;;;;;5014632;28;20491;-79
2023/04/20 07:20:33;;;;;;;24.20;22.40;;;;;;;;;;5015097;28;20468;-78
2023/04/20 07:23:00;;;;;;;25.80;24.20;;;;;;;;;;5013920;28;20561;-78
2023/04/20 07:25:30;;;;;;;26.87;25.07;;;;;;;;;;5014903;28;20430;-79
2023/04/20 07:27:57;;;;;;;26.23;24.60;;;;;;;;;;5014988;28;20499;-78
2023/04/20 07:30:24;;;;;;;26.10;24.23;;;;;;;;;;5014757;28;20551;-79
2023/04/20 07:32:51;;;;;;;25.60;23.73;;;;;;;;;;5015545;28;20205;-78
2023/04/20 07:35:18;;;;;;;25.60;23.47;;;;;;;;;;5015077;28;20475;-78
2023/04/20 07:37:46;;;;;;;25.57;23.87;;;;;;;;;;5014979;28;20469;-78
2023/04/20 07:40:13;;;;;;;27.63;25.47;;;;;;;;;;5016977;28;20482;-78
2023/04/20 07:42:41;;;;;;;25.63;23.93;;;;;;;;;;5019837;28;20534;-84
2023/04/20 07:45:09;;;;;;;26.23;24.43;;;;;;;;;;5019202;28;20450;-78
2023/04/20 07:47:36;;;;;;;23.50;21.90;;;;;;;;;;5019596;28;20462;-78
2023/04/20 07:50:03;;;;;;;26.00;24.23;;;;;;;;;;5022480;28;20443;-79
2023/04/20 07:52:31;;;;;;;26.08;24.17;;;;;;;;;;5021484;28;20980;-78
2023/04/20 07:54:58;;;;;;;25.67;23.50;;;;;;;;;;5021704;28;20217;-79
2023/04/20 07:57:25;;;;;;;26.50;24.60;;;;;;;;;;5020764;28;20442;-82
2023/04/20 07:59:53;;;;;;;27.40;25.50;;;;;;;;;;5025260;28;20468;-79
2023/04/20 08:02:20;;;;;;;27.97;25.97;;;;;;;;;;5041253;28;20505;-78
2023/04/20 08:04:48;;;;;;;27.37;25.63;;;;;;;;;;5040477;28;20447;-79
2023/04/20 08:07:15;;;;;;;24.57;23.07;;;;;;;;;;5039460;28;20449;-79
2023/04/20 08:09:42;;;;;;;26.23;24.53;;;;;;;;;;5039774;28;20981;-78
2023/04/20 08:12:09;;;;;;;25.50;23.70;;;;;;;;;;5040037;28;20461;-79
2023/04/20 08:14:37;;;;;;;26.10;24.30;;;;;;;;;;5040266;28;20450;-79
2023/04/20 08:17:05;;;;;;;24.77;23.00;;;;;;;;;;5039688;28;20959;-79
2023/04/20 08:19:32;;;;;;;24.70;22.90;;;;;;;;;;5039887;28;20545;-78
2023/04/20 08:21:59;;;;;;;26.37;24.57;;;;;;;;;;5040051;28;20867;-79
2023/04/20 08:24:26;;;;;;;25.10;23.43;;;;;;;;;;5039055;28;20821;-78
2023/04/20 08:26:53;;;;;;;26.93;25.13;;;;;;;;;;5038717;28;20426;-78
2023/04/20 08:29:20;;;;;;;26.30;24.60;;;;;;;;;;5038679;28;21007;-78
2023/04/20 08:31:48;;;;;;;27.03;25.17;;;;;;;;;;5038784;28;20509;-78
2023/04/20 08:34:16;;;;;;;24.10;22.40;;;;;;;;;;5039275;28;20935;-79
2023/04/20 08:36:43;;;;;;;27.80;25.60;;;;;;;;;;5039258;28;20529;-78
2023/04/20 08:39:12;;;;;;;26.10;24.30;;;;;;;;;;5039333;28;20801;-78
2023/04/20 08:41:39;;;;;;;26.80;24.80;;;;;;;;;;5037747;28;20962;-78
2023/04/20 08:44:07;;;;;;;23.53;22.03;;;;;;;;;;5038420;28;20469;-78
2023/04/20 08:46:34;;;;;;;26.80;24.70;;;;;;;;;;5037203;28;20947;-78
2023/04/20 08:49:02;;;;;;;25.30;23.30;;;;;;;;;;5039297;28;21008;-78
2023/04/20 08:51:31;;;;;;;26.23;24.53;;;;;;;;;;5037622;28;20429;-78
2023/04/20 08:54:02;;;;;;;27.13;25.00;;;;;;;;;;5038872;28;20494;-78
2023/04/20 08:56:34;;;;;;;25.30;23.57;;;;;;;;;;5039030;28;20449;-79
2023/04/20 08:59:04;;;;;;;25.47;23.67;;;;;;;;;;5032342;28;20514;-85
2023/04/20 09:01:31;;;;;;;25.97;24.23;;;;;;;;;;5020191;28;20463;-84
2023/04/20 09:03:59;;;;;;;25.70;24.07;;;;;;;;;;5019535;28;20502;-84
2023/04/20 09:06:26;;;;;;;26.30;24.63;;;;;;;;;;5035421;28;20464;-85
2023/04/20 09:08:55;;;;;;;27.17;25.40;;;;;;;;;;5036072;28;20462;-81
2023/04/20 09:11:23;;;;;;;26.50;24.80;;;;;;;;;;5036163;28;20425;-82
2023/04/20 09:14:00;;;;;;;25.50;23.90;;;;;;;;;;5035951;28;20509;-80
2023/04/20 09:16:27;;;;;;;25.20;23.60;;;;;;;;;;5035506;28;20445;-83
2023/04/20 09:18:55;;;;;;;25.40;23.90;;;;;;;;;;5036716;28;20475;-81
2023/04/20 09:21:22;;;;;;;26.57;24.80;;;;;;;;;;5036832;28;20463;-79
2023/04/20 09:23:58;;;;;;;26.43;24.77;;;;;;;;;;5037049;28;20458;-80
2023/04/20 09:26:25;;;;;;;25.53;23.73;;;;;;;;;;5035185;28;20497;-82
2023/04/20 09:28:52;;;;;;;26.53;24.83;;;;;;;;;;5036162;28;20452;-79
2023/04/20 09:31:19;;;;;;;25.47;23.83;;;;;;;;;;5036174;28;20458;-81
2023/04/20 09:33:55;;;;;;;25.70;24.10;;;;;;;;;;5036390;28;20450;-81
2023/04/20 09:36:22;;;;;;;25.23;23.73;;;;;;;;;;5035266;28;20444;-81
2023/04/20 09:38:49;;;;;;;25.60;24.00;;;;;;;;;;5035939;28;20464;-80
2023/04/20 09:41:18;;;;;;;26.40;24.60;;;;;;;;;;5038269;28;20474;-80
2023/04/20 09:43:45;;;;;;;26.07;24.33;;;;;;;;;;5035391;28;20807;-80
2023/04/20 09:46:12;;;;;;;25.57;23.80;;;;;;;;;;5036455;28;20449;-80
2023/04/20 09:48:40;;;;;;;26.17;24.57;;;;;;;;;;5035034;28;20454;-81
2023/04/20 09:51:07;;;;;;;26.77;25.07;;;;;;;;;;5036107;28;20436;-80
2023/04/20 09:53:35;;;;;;;26.20;24.50;;;;;;;;;;5035110;28;20485;-81
2023/04/20 09:56:02;;;;;;;24.23;22.83;;;;;;;;;;5033970;28;20455;-80
2023/04/20 09:58:32;;;;;;;25.20;23.50;;;;;;;;;;5034866;28;20450;-80
2023/04/20 10:01:00;;;;;;;25.57;23.97;;;;;;;;;;5034027;28;20500;-80
2023/04/20 10:03:27;;;;;;;24.33;22.87;;;;;;;;;;5033707;28;20518;-81
2023/04/20 10:05:55;;;;;;;25.10;23.50;;;;;;;;;;5035629;28;20455;-81
2023/04/20 10:08:23;;;;;;;25.13;23.53;;;;;;;;;;5035070;28;20440;-81
2023/04/20 10:10:51;;;;;;;26.57;24.87;;;;;;;;;;5035547;28;20451;-84
2023/04/20 10:13:20;;;;;;;26.03;24.27;;;;;;;;;;5034795;28;20442;-81
2023/04/20 10:15:48;;;;;;;24.77;23.37;;;;;;;;;;5034461;28;20453;-81
2023/04/20 10:18:21;;;;;;;25.80;24.30;;;;;;;;;;5035038;28;20435;-80
2023/04/20 10:20:49;;;;;;;26.00;24.30;;;;;;;;;;5034690;28;20465;-81
2023/04/20 10:23:17;;;;;;;26.60;25.00;;;;;;;;;;5033919;28;20461;-81
2023/04/20 10:25:55;;;;;;;26.10;24.50;;;;;;;;;;5033958;28;20475;-81
2023/04/20 10:28:22;;;;;;;26.50;24.80;;;;;;;;;;5032775;28;20438;-80
2023/04/20 10:30:54;;;;;;;26.40;24.70;;;;;;;;;;5031208;28;20459;-80
2023/04/20 10:33:21;;;;;;;25.93;24.33;;;;;;;;;;5031208;28;20433;-80
2023/04/20 10:35:49;;;;;;;26.00;24.20;;;;;;;;;;5030964;28;20433;-81
2023/04/20 10:38:17;;;;;;;26.70;25.00;;;;;;;;;;5031427;28;20429;-82
2023/04/20 10:40:44;;;;;;;25.40;23.80;;;;;;;;;;5032091;28;20842;-81
2023/04/20 10:43:21;;;;;;;24.90;23.30;;;;;;;;;;5032316;28;20411;-81
2023/04/20 10:45:48;;;;;;;25.50;24.00;;;;;;;;;;5045902;28;20442;-80
2023/04/20 10:48:16;;;;;;;27.27;25.57;;;;;;;;;;5052183;28;20478;-81
2023/04/20 10:50:43;;;;;;;25.43;23.73;;;;;;;;;;5050683;28;20407;-82
2023/04/20 10:53:20;;;;;;;28.20;26.33;;;;;;;;;;5038649;28;21023;-81
2023/04/20 10:55:50;;;;;;;25.77;24.17;;;;;;;;;;5037219;28;20486;-82
2023/04/20 10:58:23;;;;;;;28.13;26.43;;;;;;;;;;5037539;28;20430;-81
2023/04/20 11:01:00;;;;;;;26.63;25.13;;;;;;;;;;5036487;28;20424;-81
2023/04/20 11:03:29;;;;;;;27.40;25.70;;;;;;;;;;5035684;28;20461;-81
2023/04/20 11:06:00;;;;;;;26.83;25.13;;;;;;;;;;5034498;28;20531;-81
2023/04/20 11:08:36;;;;;;;27.00;25.30;;;;;;;;;;5035306;28;20479;-81
2023/04/20 11:11:03;;;;;;;25.20;23.73;;;;;;;;;;5036052;28;20414;-81
2023/04/20 11:13:31;;;;;;;25.00;23.50;;;;;;;;;;5036960;28;20525;-81
2023/04/20 11:15:59;;;;;;;26.27;24.67;;;;;;;;;;5035148;28;20600;-81
2023/04/20 11:18:25;;;;;;;25.13;23.60;;;;;;;;;;5035669;28;20547;-81
2023/04/20 11:20:55;;;;;;;26.90;25.20;;;;;;;;;;5035622;28;20515;-81
2023/04/20 11:23:24;;;;;;;25.30;23.60;;;;;;;;;;5035836;28;20489;-81
2023/04/20 11:25:52;;;;;;;25.33;23.80;;;;;;;;;;5034386;28;20918;-81
2023/04/20 11:28:19;;;;;;;26.43;24.63;;;;;;;;;;5033930;28;20941;-81
2023/04/20 11:30:48;;;;;;;24.10;22.70;;;;;;;;;;5033942;28;20455;-81
2023/04/20 11:33:16;;;;;;;26.53;24.93;;;;;;;;;;5035297;28;20434;-81
2023/04/20 11:35:43;;;;;;;25.73;24.10;;;;;;;;;;5033994;28;20469;-82
2023/04/20 11:38:12;;;;;;;26.53;24.83;;;;;;;;;;5035143;28;20434;-81
2023/04/20 11:40:39;;;;;;;26.87;25.27;;;;;;;;;;5035623;28;20434;-82
2023/04/20 11:43:06;;;;;;;26.53;24.80;;;;;;;;;;5035195;28;20505;-80
2023/04/20 11:45:34;;;;;;;25.50;24.00;;;;;;;;;;5032800;28;20487;-81
2023/04/20 11:48:01;;;;;;;25.50;24.00;;;;;;;;;;5033350;28;20494;-81
2023/04/20 11:50:28;;;;;;;26.40;24.80;;;;;;;;;;5034687;28;20550;-82
2023/04/20 11:52:55;;;;;;;25.77;24.17;;;;;;;;;;5035343;28;20462;-81
2023/04/20 11:55:23;;;;;;;25.00;23.50;;;;;;;;;;5034348;28;20414;-81
2023/04/20 11:57:50;;;;;;;25.93;23.80;;;;;;;;;;5033660;28;20434;-81
2023/04/20 12:00:18;;;;;;;25.70;23.90;;;;;;;;;;5032994;28;20466;-81
2023/04/20 12:02:45;;;;;;;27.87;26.17;;;;;;;;;;5037449;28;20447;-81
2023/04/20 12:05:12;;;;;;;26.43;24.83;;;;;;;;;;5037028;28;20479;-82
2023/04/20 12:07:40;;;;;;;25.47;23.97;;;;;;;;;;5036213;28;20426;-81
2023/04/20 12:10:07;;;;;;;27.50;25.70;;;;;;;;;;5032747;28;20458;-82
2023/04/20 12:12:37;;;;;;;25.90;24.30;;;;;;;;;;5033444;28;20459;-81
2023/04/20 12:15:04;;;;;;;24.53;23.03;;;;;;;;;;5032093;28;20423;-81
2023/04/20 12:17:31;;;;;;;27.73;25.93;;;;;;;;;;5031549;28;20552;-80
2023/04/20 12:19:59;;;;;;;25.33;23.73;;;;;;;;;;5031533;28;20533;-81
2023/04/20 12:22:26;;;;;;;25.60;23.90;;;;;;;;;;5033217;28;20443;-81
2023/04/20 12:24:53;;;;;;;24.90;23.50;;;;;;;;;;5032802;28;20470;-81
2023/04/20 12:27:20;;;;;;;25.53;23.93;;;;;;;;;;5033134;28;20804;-80
2023/04/20 12:29:49;;;;;;;26.00;24.50;;;;;;;;;;5041891;28;20493;-81
2023/04/20 12:32:16;;;;;;;27.13;25.47;;;;;;;;;;5038424;28;20459;-81
2023/04/20 12:34:43;;;;;;;25.20;23.53;;;;;;;;;;5036320;28;20451;-81
2023/04/20 12:37:10;;;;;;;24.20;22.90;;;;;;;;;;5035274;28;20433;-81
2023/04/20 12:39:37;;;;;;;25.20;23.73;;;;;;;;;;5036599;28;20471;-82
2023/04/20 12:42:04;;;;;;;25.30;23.67;;;;;;;;;;5037593;28;20423;-81
2023/04/20 12:44:31;;;;;;;25.10;23.60;;;;;;;;;;5036660;28;20454;-81
2023/04/20 12:46:59;;;;;;;24.70;23.20;;;;;;;;;;5034996;28;20532;-80
2023/04/20 12:49:27;;;;;;;26.07;24.37;;;;;;;;;;5035445;28;20479;-80
2023/04/20 12:51:54;;;;;;;24.77;23.27;;;;;;;;;;5033451;28;20497;-80
2023/04/20 12:54:22;;;;;;;24.93;23.27;;;;;;;;;;5034563;28;20417;-86
2023/04/20 12:56:49;;;;;;;23.87;22.47;;;;;;;;;;5039780;28;20468;-80
2023/04/20 12:59:16;;;;;;;25.00;23.40;;;;;;;;;;5039997;28;20475;-84
2023/04/20 13:01:43;;;;;;;25.60;23.93;;;;;;;;;;5038705;28;20415;-86
2023/04/20 13:04:13;;;;;;;22.93;21.63;;;;;;;;;;5038935;28;20411;-87
2023/04/20 13:06:40;;;;;;;24.27;22.60;;;;;;;;;;5037532;28;20663;-88
2023/04/20 13:09:07;;;;;;;25.00;23.47;;;;;;;;;;5039471;28;20456;-87
2023/04/20 13:11:34;;;;;;;24.60;23.10;;;;;;;;;;5040360;28;20511;-87
2023/04/20 13:14:01;;;;;;;25.73;24.13;;;;;;;;;;5041397;28;20459;-82
2023/04/20 13:16:29;;;;;;;25.40;23.80;;;;;;;;;;5042048;28;20433;-81
2023/04/20 13:18:56;;;;;;;24.80;23.30;;;;;;;;;;5042488;28;20489;-81
2023/04/20 13:21:29;;;;;;;25.93;24.40;;;;;;;;;;5038451;28;20461;-80
2023/04/20 13:23:56;;;;;;;25.93;24.37;;;;;;;;;;5043855;28;20463;-81
2023/04/20 13:26:23;;;;;;;25.20;23.80;;;;;;;;;;5043080;28;20488;-80
2023/04/20 13:28:50;;;;;;;25.73;24.23;;;;;;;;;;5043181;28;20476;-81
2023/04/20 13:31:17;;;;;;;26.07;24.47;;;;;;;;;;5043641;28;20497;-80
2023/04/20 13:33:44;;;;;;;25.73;24.13;;;;;;;;;;5044857;28;20426;-80
2023/04/20 13:36:11;;;;;;;25.17;23.57;;;;;;;;;;5043930;28;20440;-81
2023/04/20 13:38:40;;;;;;;23.97;22.50;;;;;;;;;;5041455;28;20483;-81
2023/04/20 13:41:07;;;;;;;24.83;23.40;;;;;;;;;;5042313;28;20486;-81
2023/04/20 13:43:34;;;;;;;23.20;21.90;;;;;;;;;;5041857;28;20430;-80
2023/04/20 13:46:01;;;;;;;25.27;23.67;;;;;;;;;;5040909;28;20458;-80
2023/04/20 13:48:28;;;;;;;23.50;21.33;;;;;;;;;;5042577;28;20476;-81
2023/04/20 13:50:55;;;;;;;23.83;22.33;;;;;;;;;;5041237;28;20406;-81
2023/04/20 13:53:22;;;;;;;24.60;23.10;;;;;;;;;;5039651;28;20944;-81
2023/04/20 13:55:50;;;;;;;24.30;22.80;;;;;;;;;;5041936;28;20472;-81
2023/04/20 13:58:17;;;;;;;23.53;22.13;;;;;;;;;;5042915;28;20451;-81
2023/04/20 14:00:45;;;;;;;24.40;22.90;;;;;;;;;;5042520;28;20499;-81
2023/04/20 14:03:12;;;;;;;25.13;23.63;;;;;;;;;;5042091;28;20453;-81
2023/04/20 14:05:39;;;;;;;24.47;22.93;;;;;;;;;;5042010;28;20458;-80
2023/04/20 14:08:07;;;;;;;24.73;23.13;;;;;;;;;;5042559;28;20414;-81
2023/04/20 14:10:34;;;;;;;24.63;23.13;;;;;;;;;;5042711;28;20447;-81
2023/04/20 14:13:02;;;;;;;23.80;22.30;;;;;;;;;;5042191;28;20498;-81
2023/04/20 14:15:29;;;;;;;23.77;22.37;;;;;;;;;;5042609;28;20448;-81
2023/04/20 14:17:56;;;;;;;23.63;22.23;;;;;;;;;;5041580;28;20436;-81